createdAt,value
2023-09-04T00:01:50.468Z,74.46
2023-09-04T00:04:36.138Z,74.46
2023-09-04T00:07:21.747Z,74.53
2023-09-04T00:10:07.467Z,74.85
2023-09-04T00:12:52.789Z,75.08
2023-09-04T00:15:38.979Z,74.62
2023-09-04T00:18:25.392Z,74.88
2023-09-04T00:21:11.115Z,74.82
2023-09-04T00:23:56.881Z,74.63
2023-09-04T00:26:42.130Z,74.34
2023-09-04T00:29:27.698Z,74.62
2023-09-04T00:32:13.286Z,74.95
2023-09-04T00:34:58.607Z,75.61
2023-09-04T00:37:44.143Z,75.62
2023-09-04T00:40:29.966Z,75.38
2023-09-04T00:43:15.716Z,75.45
2023-09-04T00:46:01.235Z,75.09
2023-09-04T00:48:47.319Z,74.91
2023-09-04T00:51:33.237Z,75.18
2023-09-04T00:54:18.934Z,75.54
2023-09-04T00:57:06.393Z,75.21
2023-09-04T00:59:52.075Z,75.62
2023-09-04T01:02:39.552Z,76.17
2023-09-04T01:05:25.154Z,76.25
2023-09-04T01:08:10.399Z,75.62
2023-09-04T01:11:13.441Z,76.25
2023-09-04T01:14:00.433Z,75.29
2023-09-04T01:16:47.083Z,75.86
2023-09-04T01:19:33.173Z,75.95
2023-09-04T01:22:18.980Z,76.47
2023-09-04T01:25:04.316Z,76.47
2023-09-04T01:27:59.169Z,76.04
2023-09-04T01:31:17.125Z,76.40
2023-09-04T01:34:16.946Z,75.68
2023-09-04T01:37:02.698Z,76.18
2023-09-04T01:39:49.683Z,76.45
2023-09-04T01:42:35.772Z,76.43
2023-09-04T01:45:21.019Z,76.54
2023-09-04T01:48:07.128Z,76.47
2023-09-04T01:50:54.241Z,76.70
2023-09-04T01:53:39.940Z,76.42
2023-09-04T01:56:25.574Z,76.27
2023-09-04T01:59:11.052Z,76.16
2023-09-04T02:01:56.558Z,76.39
2023-09-04T02:04:42.204Z,76.26
2023-09-04T02:07:27.802Z,76.88
2023-09-04T02:10:13.208Z,76.55
2023-09-04T02:12:59.648Z,75.43
2023-09-04T02:15:46.732Z,75.65
2023-09-04T02:18:32.833Z,76.26
2023-09-04T02:21:18.471Z,77.37
2023-09-04T02:24:04.010Z,77.57
2023-09-04T02:26:49.484Z,77.72
2023-09-04T02:29:35.052Z,77.72
2023-09-04T02:32:20.319Z,77.45
2023-09-04T02:35:06.583Z,78.12
2023-09-04T02:37:52.006Z,77.58
2023-09-04T02:40:37.289Z,77.73
2023-09-04T02:43:22.606Z,78.01
2023-09-04T02:46:08.465Z,78.18
2023-09-04T02:48:53.893Z,78.30
2023-09-04T02:51:39.912Z,77.71
2023-09-04T02:54:25.265Z,78.20
2023-09-04T02:57:11.076Z,79.10
2023-09-04T02:59:56.417Z,78.91
2023-09-04T03:02:43.004Z,78.77
2023-09-04T03:05:28.993Z,79.50
2023-09-04T03:08:16.456Z,79.31
2023-09-04T03:11:02.687Z,79.62
2023-09-04T03:13:48.201Z,79.48
2023-09-04T03:16:33.864Z,79.26
2023-09-04T03:19:19.406Z,79.45
2023-09-04T03:22:05.131Z,79.91
2023-09-04T03:24:50.695Z,79.79
2023-09-04T03:27:36.249Z,79.74
2023-09-04T03:30:22.427Z,79.37
2023-09-04T03:33:08.128Z,79.62
2023-09-04T03:35:53.630Z,79.88
2023-09-04T03:38:39.805Z,79.61
2023-09-04T03:41:25.454Z,79.80
2023-09-04T03:44:10.627Z,80.44
2023-09-04T03:46:55.859Z,79.89
2023-09-04T03:49:41.438Z,79.92
2023-09-04T03:52:26.912Z,79.88
2023-09-04T03:55:13.030Z,79.31
2023-09-04T03:57:58.567Z,79.16
2023-09-04T04:00:44.386Z,78.34
2023-09-04T04:03:30.758Z,78.49
2023-09-04T04:06:16.450Z,78.34
2023-09-04T04:09:02.363Z,78.40
2023-09-04T04:11:48.074Z,78.55
2023-09-04T04:14:33.613Z,78.87
2023-09-04T04:17:18.915Z,78.34
2023-09-04T04:20:05.272Z,78.12
2023-09-04T04:22:50.922Z,78.37
2023-09-04T04:25:36.815Z,78.16
2023-09-04T04:28:23.918Z,79.18
2023-09-04T04:31:10.132Z,78.92
2023-09-04T04:33:56.652Z,78.73
2023-09-04T04:36:42.376Z,78.54
2023-09-04T04:39:28.119Z,78.72
2023-09-04T04:42:15.570Z,79.04
2023-09-04T04:45:00.876Z,78.91
2023-09-04T04:47:46.193Z,78.49
2023-09-04T04:50:31.881Z,78.52
2023-09-04T04:53:17.220Z,78.45
2023-09-04T04:56:04.930Z,78.12
2023-09-04T04:58:50.231Z,78.43
2023-09-04T05:01:36.149Z,78.72
2023-09-04T05:04:21.706Z,79.12
2023-09-04T05:07:07.167Z,79.58
2023-09-04T05:09:54.093Z,79.67
2023-09-04T05:12:40.042Z,80.06
2023-09-04T05:15:25.234Z,80.43
2023-09-04T05:18:11.696Z,80.35
2023-09-04T05:20:59.219Z,81.93
2023-09-04T05:23:44.474Z,81.77
2023-09-04T05:26:30.126Z,82.05
2023-09-04T05:29:15.394Z,82.31
2023-09-04T05:32:00.751Z,82.38
2023-09-04T05:34:46.192Z,81.99
2023-09-04T05:37:32.472Z,82.09
2023-09-04T05:40:17.920Z,81.69
2023-09-04T05:43:03.941Z,82.01
2023-09-04T05:45:49.962Z,81.95
2023-09-04T05:48:35.404Z,82.27
2023-09-04T05:51:20.630Z,82.91
2023-09-04T05:54:06.146Z,84.03
2023-09-04T05:56:51.783Z,84.75
2023-09-04T05:59:37.268Z,87.18
2023-09-04T06:02:22.549Z,87.89
2023-09-04T06:05:08.295Z,89.33
2023-09-04T06:07:54.041Z,87.97
2023-09-04T06:10:39.800Z,89.36
2023-09-04T06:13:25.347Z,89.09
2023-09-04T06:16:10.886Z,87.83
2023-09-04T06:18:56.599Z,87.34
2023-09-04T06:21:42.146Z,84.40
2023-09-04T06:24:27.729Z,77.53
2023-09-04T06:27:13.297Z,75.82
2023-09-04T06:29:58.515Z,75.06
2023-09-04T06:32:44.289Z,73.98
2023-09-04T06:35:30.283Z,73.96
2023-09-04T06:38:15.711Z,75.18
2023-09-04T06:41:01.288Z,76.24
2023-09-04T06:43:46.860Z,76.09
2023-09-04T06:46:33.263Z,76.98
2023-09-04T06:49:18.722Z,76.60
2023-09-04T06:52:04.397Z,78.58
2023-09-04T06:54:49.740Z,77.00
2023-09-04T06:57:34.982Z,77.44
2023-09-04T07:00:21.685Z,80.25
2023-09-04T07:03:07.398Z,80.04
2023-09-04T07:05:53.141Z,80.67
2023-09-04T07:08:38.487Z,79.92
2023-09-04T07:11:24.444Z,79.31
2023-09-04T07:14:09.729Z,79.49
2023-09-04T07:17:07.572Z,80.83
2023-09-04T07:19:53.977Z,80.68
2023-09-04T07:22:39.928Z,82.14
2023-09-04T07:25:25.306Z,81.73
2023-09-04T07:28:10.679Z,81.41
2023-09-04T07:31:16.645Z,78.53
2023-09-04T07:34:02.887Z,79.18
2023-09-04T07:36:48.421Z,79.09
2023-09-04T07:39:33.903Z,79.76
2023-09-04T07:42:19.625Z,79.01
2023-09-04T07:45:05.422Z,77.14
2023-09-04T07:47:51.010Z,77.62
2023-09-04T07:50:36.297Z,74.39
2023-09-04T07:53:22.844Z,74.24
2023-09-04T07:56:10.965Z,75.44
2023-09-04T07:58:56.076Z,73.34
2023-09-04T08:01:41.448Z,73.86
2023-09-04T08:04:27.124Z,76.74
2023-09-04T08:07:12.505Z,75.03
2023-09-04T08:09:57.930Z,75.29
2023-09-04T08:12:43.787Z,74.23
2023-09-04T08:15:28.985Z,71.97
2023-09-04T08:18:14.515Z,73.35
2023-09-04T08:20:59.836Z,70.69
2023-09-04T08:23:45.786Z,71.50
2023-09-04T08:26:31.306Z,72.09
2023-09-04T08:29:16.714Z,72.82
2023-09-04T08:32:02.290Z,70.58
2023-09-04T08:34:47.883Z,70.63
2023-09-04T08:37:33.221Z,69.80
2023-09-04T08:40:18.567Z,68.36
2023-09-04T08:43:05.309Z,69.12
2023-09-04T08:45:51.306Z,70.04
2023-09-04T08:48:40.844Z,69.04
2023-09-04T08:51:27.584Z,66.21
2023-09-04T08:54:13.364Z,68.19
2023-09-04T08:56:59.166Z,65.79
2023-09-04T08:59:44.589Z,65.70
2023-09-04T09:02:31.004Z,61.36
2023-09-04T09:05:18.274Z,60.96
2023-09-04T09:08:05.466Z,59.34
2023-09-04T09:10:52.693Z,57.04
2023-09-04T09:13:38.092Z,57.79
2023-09-04T09:16:23.466Z,58.29
2023-09-04T09:19:10.224Z,59.70
2023-09-04T09:22:09.340Z,60.02
2023-09-04T09:25:00.779Z,58.61
2023-09-04T09:27:46.314Z,57.00
2023-09-04T09:30:37.985Z,57.30
2023-09-04T09:33:23.463Z,58.11
2023-09-04T09:36:17.957Z,56.04
2023-09-04T09:39:05.069Z,56.28
2023-09-04T09:41:50.410Z,55.93
2023-09-04T09:44:35.988Z,54.79
2023-09-04T09:47:22.382Z,57.34
2023-09-04T09:50:09.021Z,57.34
2023-09-04T09:53:01.608Z,55.52
2023-09-04T09:55:49.676Z,59.51
2023-09-04T09:58:35.081Z,54.92
2023-09-04T10:01:20.407Z,54.53
2023-09-04T10:04:07.378Z,53.71
2023-09-04T10:06:54.426Z,52.01
2023-09-04T10:09:45.994Z,54.69
2023-09-04T10:12:42.046Z,53.47
2023-09-04T10:15:28.711Z,52.83
2023-09-04T10:18:47.545Z,55.53
2023-09-04T10:21:41.469Z,54.76
2023-09-04T10:24:55.111Z,54.62
2023-09-04T10:27:45.525Z,51.95
2023-09-04T10:30:37.105Z,50.72
2023-09-04T10:33:22.651Z,50.42
2023-09-04T10:36:09.907Z,49.64
2023-09-04T10:38:55.963Z,50.80
2023-09-04T10:41:42.047Z,50.34
2023-09-04T10:44:45.775Z,52.25
2023-09-04T10:47:44.857Z,52.45
2023-09-04T10:50:34.952Z,49.92
2023-09-04T10:53:30.826Z,48.63
2023-09-04T10:59:27.069Z,48.73
2023-09-04T11:02:26.476Z,46.28
2023-09-04T11:05:11.909Z,47.61
2023-09-04T11:08:26.628Z,47.01
2023-09-04T11:11:12.225Z,48.03
2023-09-04T11:14:03.936Z,50.50
2023-09-04T11:16:50.776Z,44.48
2023-09-04T11:19:36.234Z,43.73
2023-09-04T11:22:23.896Z,45.61
2023-09-04T11:25:09.085Z,47.34
2023-09-04T11:27:54.381Z,44.42
2023-09-04T11:30:40.495Z,45.43
2023-09-04T11:33:30.266Z,43.99
2023-09-04T11:36:16.390Z,48.86
2023-09-04T11:39:06.027Z,45.96
2023-09-04T11:41:51.230Z,45.21
2023-09-04T11:44:36.740Z,47.11
2023-09-04T11:47:23.454Z,45.98
2023-09-04T11:50:15.298Z,46.59
2023-09-04T11:53:01.166Z,45.75
2023-09-04T11:55:52.862Z,46.20
2023-09-04T11:58:40.571Z,44.67
2023-09-04T12:01:27.081Z,46.36
2023-09-04T12:04:12.414Z,47.06
2023-09-04T12:06:57.726Z,46.08
2023-09-04T12:09:43.377Z,44.33
2023-09-04T12:12:28.788Z,44.73
2023-09-04T12:15:26.799Z,45.44
2023-09-04T12:18:12.189Z,44.09
2023-09-04T12:20:57.980Z,43.90
2023-09-04T12:23:47.629Z,42.59
2023-09-04T12:26:33.032Z,44.21
2023-09-04T12:29:21.697Z,44.32
2023-09-04T12:32:07.066Z,44.17
2023-09-04T12:35:00.652Z,44.23
2023-09-04T12:37:46.572Z,45.62
2023-09-04T12:40:32.176Z,43.48
2023-09-04T12:43:17.475Z,42.52
2023-09-04T12:46:02.891Z,43.15
2023-09-04T12:48:49.831Z,42.37
2023-09-04T12:51:35.279Z,43.00
2023-09-04T12:54:20.704Z,43.70
2023-09-04T12:57:06.348Z,43.04
2023-09-04T12:59:52.126Z,43.70
2023-09-04T13:02:38.029Z,44.04
2023-09-04T13:05:25.114Z,43.58
2023-09-04T13:08:10.531Z,44.52
2023-09-04T13:10:56.048Z,44.59
2023-09-04T13:13:42.971Z,43.45
2023-09-04T13:16:28.347Z,42.18
2023-09-04T13:19:13.726Z,43.25
2023-09-04T13:21:59.239Z,42.69
2023-09-04T13:24:44.657Z,43.15
2023-09-04T13:27:30.123Z,43.13
2023-09-04T13:30:15.636Z,43.35
2023-09-04T13:33:01.193Z,43.68
2023-09-04T13:35:46.960Z,43.35
2023-09-04T13:38:32.430Z,43.63
2023-09-04T13:41:20.615Z,43.17
2023-09-04T13:44:05.925Z,41.38
2023-09-04T13:46:51.428Z,42.07
2023-09-04T13:49:37.333Z,44.27
2023-09-04T13:52:24.940Z,41.73
2023-09-04T13:55:10.678Z,42.81
2023-09-04T13:57:56.177Z,42.21
2023-09-04T14:00:42.164Z,41.85
2023-09-04T14:03:28.044Z,40.61
2023-09-04T14:06:13.760Z,42.90
2023-09-04T14:08:59.587Z,41.44
2023-09-04T14:11:44.862Z,42.92
2023-09-04T14:14:31.092Z,42.91
2023-09-04T14:17:16.779Z,41.96
2023-09-04T14:20:02.291Z,40.90
2023-09-04T14:22:47.829Z,40.87
2023-09-04T14:25:33.599Z,42.48
2023-09-04T14:28:18.809Z,41.73
2023-09-04T14:31:04.638Z,42.11
2023-09-04T14:33:50.014Z,42.17
2023-09-04T14:36:35.948Z,41.75
2023-09-04T14:39:21.613Z,41.51
2023-09-04T14:42:07.719Z,41.02
2023-09-04T14:44:53.290Z,41.50
2023-09-04T14:47:38.934Z,43.25
2023-09-04T14:50:27.566Z,43.56
2023-09-04T14:53:12.819Z,44.33
2023-09-04T14:55:58.959Z,44.68
2023-09-04T14:58:44.677Z,43.44
2023-09-04T15:01:30.088Z,45.04
2023-09-04T15:04:15.387Z,44.47
2023-09-04T15:07:00.734Z,44.61
2023-09-04T15:09:46.345Z,44.68
2023-09-04T15:12:32.039Z,44.93
2023-09-04T15:15:17.547Z,42.41
2023-09-04T15:18:03.134Z,44.88
2023-09-04T15:20:51.594Z,42.83
2023-09-04T15:23:37.244Z,44.91
2023-09-04T15:26:22.753Z,45.69
2023-09-04T15:29:07.998Z,44.29
2023-09-04T15:31:53.909Z,45.69
2023-09-04T15:34:39.597Z,45.89
2023-09-04T15:37:24.940Z,46.76
2023-09-04T15:40:10.297Z,44.67
2023-09-04T15:42:56.076Z,45.45
2023-09-04T15:45:41.541Z,45.55
2023-09-04T15:48:27.250Z,46.19
2023-09-04T15:51:13.075Z,46.83
2023-09-04T15:53:58.809Z,47.92
2023-09-04T15:56:44.442Z,46.87
2023-09-04T15:59:31.883Z,47.26
2023-09-04T16:02:17.568Z,46.79
2023-09-04T16:05:03.318Z,47.03
2023-09-04T16:07:48.685Z,48.00
2023-09-04T16:10:34.090Z,47.04
2023-09-04T16:13:20.958Z,47.03
2023-09-04T16:16:06.320Z,48.63
2023-09-04T16:18:51.758Z,48.55
2023-09-04T16:21:37.172Z,48.79
2023-09-04T16:24:22.798Z,47.63
2023-09-04T16:27:08.022Z,48.33
2023-09-04T16:29:53.936Z,49.47
2023-09-04T16:32:40.058Z,49.12
2023-09-04T16:35:25.636Z,49.42
2023-09-04T16:38:11.355Z,50.70
2023-09-04T16:40:56.766Z,50.15
2023-09-04T16:43:42.513Z,50.92
2023-09-04T16:46:28.039Z,51.13
2023-09-04T16:49:13.366Z,50.21
2023-09-04T16:52:00.735Z,50.99
2023-09-04T16:54:47.876Z,51.71
2023-09-04T16:57:33.280Z,52.09
2023-09-04T17:00:19.070Z,52.86
2023-09-04T17:03:04.260Z,53.11
2023-09-04T17:05:50.007Z,51.94
2023-09-04T17:08:35.398Z,52.24
2023-09-04T17:11:20.951Z,51.76
2023-09-04T17:14:07.343Z,52.14
2023-09-04T17:16:52.881Z,52.30
2023-09-04T17:19:38.412Z,52.20
2023-09-04T17:22:24.064Z,52.27
2023-09-04T17:25:09.530Z,52.14
2023-09-04T17:27:55.024Z,53.45
2023-09-04T17:30:42.700Z,53.58
2023-09-04T17:33:28.018Z,53.99
2023-09-04T17:36:13.406Z,53.00
2023-09-04T17:38:58.732Z,53.82
2023-09-04T17:41:44.328Z,53.70
2023-09-04T17:44:29.883Z,54.21
2023-09-04T17:47:15.384Z,53.86
2023-09-04T17:50:01.057Z,53.95
2023-09-04T17:52:46.272Z,53.66
2023-09-04T17:55:32.206Z,53.94
2023-09-04T17:58:17.862Z,54.25
2023-09-04T18:01:03.381Z,53.75
2023-09-04T18:03:48.710Z,54.07
2023-09-04T18:06:35.319Z,54.35
2023-09-04T18:09:21.172Z,54.52
2023-09-04T18:12:07.146Z,55.46
2023-09-04T18:14:52.428Z,54.84
2023-09-04T18:17:38.006Z,54.65
2023-09-04T18:20:24.707Z,54.64
2023-09-04T18:27:11.836Z,55.61
2023-09-04T18:30:01.997Z,55.34
2023-09-04T18:32:47.847Z,56.15
2023-09-04T18:35:33.854Z,57.46
2023-09-04T18:38:18.996Z,57.40
2023-09-04T18:41:08.896Z,57.77
2023-09-04T18:43:54.598Z,58.12
2023-09-04T18:46:40.221Z,57.97
2023-09-04T18:49:25.379Z,57.70
2023-09-04T18:52:10.820Z,57.73
2023-09-04T18:54:56.419Z,57.35
2023-09-04T18:57:41.889Z,57.15
2023-09-04T19:00:27.170Z,57.46
2023-09-04T19:03:12.810Z,57.32
2023-09-04T19:05:58.357Z,57.74
2023-09-04T19:08:43.978Z,58.24
2023-09-04T19:11:29.442Z,58.42
2023-09-04T19:14:14.888Z,58.73
2023-09-04T19:17:01.046Z,58.73
2023-09-04T19:19:46.672Z,58.82
2023-09-04T19:22:31.894Z,59.19
2023-09-04T19:25:17.645Z,59.15
2023-09-04T19:28:10.723Z,59.11
2023-09-04T19:30:56.463Z,59.08
2023-09-04T19:33:41.954Z,59.07
2023-09-04T19:36:27.618Z,58.97
2023-09-04T19:39:12.983Z,58.97
2023-09-04T19:41:58.473Z,59.10
2023-09-04T19:44:43.725Z,58.98
2023-09-04T19:47:29.555Z,59.26
2023-09-04T19:50:14.871Z,59.26
2023-09-04T19:53:00.246Z,59.57
2023-09-04T19:55:45.899Z,59.09
2023-09-04T19:58:31.386Z,59.81
2023-09-04T20:01:17.118Z,59.77
2023-09-04T20:04:02.506Z,59.99
2023-09-04T20:06:48.206Z,60.43
2023-09-04T20:09:34.759Z,60.85
2023-09-04T20:12:20.197Z,61.02
2023-09-04T20:15:06.216Z,61.44
2023-09-04T20:17:51.933Z,62.10
2023-09-04T20:20:37.274Z,61.87
2023-09-04T20:23:23.150Z,62.89
2023-09-04T20:26:09.340Z,63.03
2023-09-04T20:28:58.182Z,62.72
2023-09-04T20:31:44.295Z,63.20
2023-09-04T20:34:29.723Z,63.16
2023-09-04T20:37:15.494Z,63.24
2023-09-04T20:40:01.107Z,63.19
2023-09-04T20:42:46.742Z,62.87
2023-09-04T20:45:31.915Z,62.58
2023-09-04T20:48:17.175Z,62.34
2023-09-04T20:51:03.268Z,62.73
2023-09-04T20:53:48.561Z,62.58
2023-09-04T20:56:34.114Z,62.84
2023-09-04T20:59:19.302Z,62.99
2023-09-04T21:02:04.960Z,63.12
2023-09-04T21:04:50.343Z,62.84
2023-09-04T21:07:35.748Z,62.97
2023-09-04T21:10:21.436Z,63.05
2023-09-04T21:13:06.684Z,63.62
2023-09-04T21:15:52.966Z,63.77
2023-09-04T21:18:38.668Z,64.01
2023-09-04T21:21:24.047Z,63.98
2023-09-04T21:24:09.582Z,64.23
2023-09-04T21:26:55.306Z,64.37
2023-09-04T21:29:40.864Z,64.56
2023-09-04T21:32:26.543Z,64.17
2023-09-04T21:35:11.970Z,64.53
2023-09-04T21:37:57.601Z,64.25
2023-09-04T21:40:42.972Z,64.76
2023-09-04T21:43:28.627Z,65.40
2023-09-04T21:46:14.198Z,65.09
2023-09-04T21:49:02.078Z,65.29
2023-09-04T21:51:47.438Z,65.24
2023-09-04T21:54:32.802Z,65.23
2023-09-04T21:57:18.155Z,65.34
2023-09-04T22:00:04.087Z,65.04
2023-09-04T22:02:50.925Z,65.59
2023-09-04T22:05:36.366Z,65.76
2023-09-04T22:08:21.281Z,65.71
2023-09-04T22:11:06.764Z,65.90
2023-09-04T22:13:52.217Z,66.42
2023-09-04T22:16:40.379Z,67.17
2023-09-04T22:19:31.581Z,66.53
2023-09-04T22:22:16.827Z,66.82
2023-09-04T22:25:02.432Z,66.72
2023-09-04T22:27:48.146Z,67.10
2023-09-04T22:30:33.470Z,67.09
2023-09-04T22:33:19.034Z,67.16
2023-09-04T22:36:04.130Z,67.38
2023-09-04T22:38:49.984Z,67.20
2023-09-04T22:41:34.892Z,67.04
2023-09-04T22:44:20.507Z,67.33
2023-09-04T22:47:06.069Z,67.75
2023-09-04T22:49:51.328Z,67.68
2023-09-04T22:52:36.355Z,68.05
2023-09-04T22:55:21.682Z,68.00
2023-09-04T22:58:06.789Z,68.30
2023-09-04T23:00:52.325Z,69.13
2023-09-04T23:03:37.727Z,70.45
2023-09-04T23:06:23.520Z,70.73
2023-09-04T23:09:08.623Z,70.69
2023-09-04T23:11:54.253Z,71.19
2023-09-04T23:14:39.705Z,70.79
2023-09-04T23:17:24.954Z,70.67
2023-09-04T23:20:10.668Z,70.31
2023-09-04T23:22:55.936Z,70.34
2023-09-04T23:25:41.330Z,71.07
2023-09-04T23:28:26.974Z,71.72
2023-09-04T23:31:12.269Z,71.26
2023-09-04T23:33:57.836Z,71.35
2023-09-04T23:36:43.932Z,71.23
2023-09-04T23:39:32.473Z,71.09
2023-09-04T23:42:17.816Z,70.56
2023-09-04T23:45:03.214Z,71.24
2023-09-04T23:47:49.747Z,71.78
2023-09-04T23:50:34.969Z,73.03
2023-09-04T23:53:20.438Z,73.25
2023-09-04T23:56:07.350Z,73.53
2023-09-04T23:58:52.826Z,72.64
